sensor_id;sensor_type;location;lat;lon;timestamp;P1;durP1;ratioP1;P2;durP2;ratioP2
52848;SDS011;38714;53.180;5.812;2023-09-07T00:00:52;4.15;;;3.00;;
52848;SDS011;38714;53.180;5.812;2023-09-07T00:03:17;5.70;;;3.65;;
52848;SDS011;38714;53.180;5.812;2023-09-07T00:05:43;5.70;;;3.60;;
52848;SDS011;38714;53.180;5.812;2023-09-07T00:08:09;5.90;;;3.60;;
52848;SDS011;38714;53.180;5.812;2023-09-07T00:10:35;4.97;;;3.92;;
52848;SDS011;38714;53.180;5.812;2023-09-07T00:13:04;5.93;;;4.05;;
52848;SDS011;38714;53.180;5.812;2023-09-07T00:15:30;6.70;;;4.20;;
52848;SDS011;38714;53.180;5.812;2023-09-07T00:18:00;6.70;;;4.32;;
52848;SDS011;38714;53.180;5.812;2023-09-07T00:20:25;7.45;;;3.63;;
52848;SDS011;38714;53.180;5.812;2023-09-07T00:22:51;4.63;;;3.40;;
52848;SDS011;38714;53.180;5.812;2023-09-07T00:25:16;5.07;;;3.40;;
52848;SDS011;38714;53.180;5.812;2023-09-07T00:27:42;5.30;;;3.45;;
52848;SDS011;38714;53.180;5.812;2023-09-07T00:30:08;5.15;;;3.63;;
52848;SDS011;38714;53.180;5.812;2023-09-07T00:32:35;5.38;;;3.55;;
52848;SDS011;38714;53.180;5.812;2023-09-07T00:35:02;5.10;;;3.90;;
52848;SDS011;38714;53.180;5.812;2023-09-07T00:37:28;4.60;;;3.75;;
52848;SDS011;38714;53.180;5.812;2023-09-07T00:39:54;5.35;;;4.18;;
52848;SDS011;38714;53.180;5.812;2023-09-07T00:42:19;5.03;;;3.33;;
52848;SDS011;38714;53.180;5.812;2023-09-07T00:44:45;7.13;;;3.85;;
52848;SDS011;38714;53.180;5.812;2023-09-07T00:47:11;4.85;;;4.10;;
52848;SDS011;38714;53.180;5.812;2023-09-07T00:49:37;4.25;;;3.50;;
52848;SDS011;38714;53.180;5.812;2023-09-07T00:52:04;5.03;;;3.60;;
52848;SDS011;38714;53.180;5.812;2023-09-07T00:54:30;3.90;;;3.28;;
52848;SDS011;38714;53.180;5.812;2023-09-07T00:56:56;4.82;;;4.10;;
52848;SDS011;38714;53.180;5.812;2023-09-07T00:59:22;4.53;;;3.58;;
52848;SDS011;38714;53.180;5.812;2023-09-07T01:01:48;6.32;;;3.85;;
52848;SDS011;38714;53.180;5.812;2023-09-07T01:04:14;5.03;;;4.32;;
52848;SDS011;38714;53.180;5.812;2023-09-07T01:06:42;6.60;;;3.95;;
52848;SDS011;38714;53.180;5.812;2023-09-07T01:09:14;9.10;;;3.92;;
52848;SDS011;38714;53.180;5.812;2023-09-07T01:14:09;4.00;;;3.60;;
52848;SDS011;38714;53.180;5.812;2023-09-07T01:16:35;4.93;;;3.70;;
52848;SDS011;38714;53.180;5.812;2023-09-07T01:19:04;8.13;;;4.28;;
52848;SDS011;38714;53.180;5.812;2023-09-07T01:21:34;5.95;;;3.67;;
52848;SDS011;38714;53.180;5.812;2023-09-07T01:24:00;5.78;;;3.88;;
52848;SDS011;38714;53.180;5.812;2023-09-07T01:26:28;6.97;;;4.75;;
52848;SDS011;38714;53.180;5.812;2023-09-07T01:28:54;5.72;;;4.10;;
52848;SDS011;38714;53.180;5.812;2023-09-07T01:31:19;5.40;;;4.00;;
52848;SDS011;38714;53.180;5.812;2023-09-07T01:33:45;5.15;;;3.85;;
52848;SDS011;38714;53.180;5.812;2023-09-07T01:36:11;5.70;;;4.07;;
52848;SDS011;38714;53.180;5.812;2023-09-07T01:38:36;4.95;;;4.15;;
52848;SDS011;38714;53.180;5.812;2023-09-07T01:41:02;7.53;;;4.35;;
52848;SDS011;38714;53.180;5.812;2023-09-07T01:43:27;6.82;;;4.63;;
52848;SDS011;38714;53.180;5.812;2023-09-07T01:45:53;6.13;;;3.67;;
52848;SDS011;38714;53.180;5.812;2023-09-07T01:48:18;6.82;;;4.45;;
52848;SDS011;38714;53.180;5.812;2023-09-07T01:50:44;5.22;;;4.18;;
52848;SDS011;38714;53.180;5.812;2023-09-07T01:53:10;5.75;;;4.35;;
52848;SDS011;38714;53.180;5.812;2023-09-07T01:55:35;6.78;;;4.15;;
52848;SDS011;38714;53.180;5.812;2023-09-07T01:58:01;4.93;;;4.40;;
52848;SDS011;38714;53.180;5.812;2023-09-07T02:00:26;6.80;;;4.32;;
52848;SDS011;38714;53.180;5.812;2023-09-07T02:02:52;8.40;;;4.38;;
52848;SDS011;38714;53.180;5.812;2023-09-07T02:05:18;4.75;;;4.03;;
52848;SDS011;38714;53.180;5.812;2023-09-07T02:07:43;7.10;;;4.32;;
52848;SDS011;38714;53.180;5.812;2023-09-07T02:10:09;5.15;;;3.97;;
52848;SDS011;38714;53.180;5.812;2023-09-07T02:12:35;5.90;;;4.72;;
52848;SDS011;38714;53.180;5.812;2023-09-07T02:15:04;6.28;;;4.30;;
52848;SDS011;38714;53.180;5.812;2023-09-07T02:17:30;7.60;;;4.45;;
52848;SDS011;38714;53.180;5.812;2023-09-07T02:19:57;5.45;;;4.15;;
52848;SDS011;38714;53.180;5.812;2023-09-07T02:22:22;5.25;;;4.10;;
52848;SDS011;38714;53.180;5.812;2023-09-07T02:24:48;5.90;;;3.72;;
52848;SDS011;38714;53.180;5.812;2023-09-07T02:27:14;6.65;;;4.32;;
52848;SDS011;38714;53.180;5.812;2023-09-07T02:29:39;7.63;;;5.97;;
52848;SDS011;38714;53.180;5.812;2023-09-07T02:32:05;8.25;;;4.55;;
52848;SDS011;38714;53.180;5.812;2023-09-07T02:34:31;6.50;;;4.13;;
52848;SDS011;38714;53.180;5.812;2023-09-07T02:36:56;5.55;;;4.22;;
52848;SDS011;38714;53.180;5.812;2023-09-07T02:39:22;9.25;;;5.13;;
52848;SDS011;38714;53.180;5.812;2023-09-07T02:41:51;7.10;;;4.57;;
52848;SDS011;38714;53.180;5.812;2023-09-07T02:44:17;8.07;;;4.28;;
52848;SDS011;38714;53.180;5.812;2023-09-07T02:46:43;6.65;;;3.92;;
52848;SDS011;38714;53.180;5.812;2023-09-07T02:49:08;5.07;;;4.35;;
52848;SDS011;38714;53.180;5.812;2023-09-07T02:51:34;6.38;;;4.90;;
52848;SDS011;38714;53.180;5.812;2023-09-07T02:54:01;4.95;;;3.65;;
52848;SDS011;38714;53.180;5.812;2023-09-07T02:56:27;5.53;;;4.55;;
52848;SDS011;38714;53.180;5.812;2023-09-07T02:58:53;5.32;;;3.80;;
52848;SDS011;38714;53.180;5.812;2023-09-07T03:01:19;5.68;;;4.43;;
52848;SDS011;38714;53.180;5.812;2023-09-07T03:03:45;7.05;;;3.83;;
52848;SDS011;38714;53.180;5.812;2023-09-07T03:06:12;6.80;;;4.68;;
52848;SDS011;38714;53.180;5.812;2023-09-07T03:08:39;5.82;;;4.53;;
52848;SDS011;38714;53.180;5.812;2023-09-07T03:11:05;7.45;;;4.18;;
52848;SDS011;38714;53.180;5.812;2023-09-07T03:13:32;5.20;;;4.22;;
52848;SDS011;38714;53.180;5.812;2023-09-07T03:15:58;4.75;;;3.97;;
52848;SDS011;38714;53.180;5.812;2023-09-07T03:18:24;5.50;;;3.92;;
52848;SDS011;38714;53.180;5.812;2023-09-07T03:20:50;5.97;;;4.70;;
52848;SDS011;38714;53.180;5.812;2023-09-07T03:23:18;5.07;;;3.90;;
52848;SDS011;38714;53.180;5.812;2023-09-07T03:25:44;5.78;;;3.58;;
52848;SDS011;38714;53.180;5.812;2023-09-07T03:28:10;6.90;;;3.95;;
52848;SDS011;38714;53.180;5.812;2023-09-07T03:30:35;7.10;;;4.32;;
52848;SDS011;38714;53.180;5.812;2023-09-07T03:33:01;7.93;;;4.65;;
52848;SDS011;38714;53.180;5.812;2023-09-07T03:35:28;8.40;;;4.93;;
52848;SDS011;38714;53.180;5.812;2023-09-07T03:37:53;6.55;;;3.92;;
52848;SDS011;38714;53.180;5.812;2023-09-07T03:40:19;5.13;;;3.80;;
52848;SDS011;38714;53.180;5.812;2023-09-07T03:42:45;10.35;;;4.50;;
52848;SDS011;38714;53.180;5.812;2023-09-07T03:45:11;5.45;;;3.92;;
52848;SDS011;38714;53.180;5.812;2023-09-07T03:47:37;5.15;;;4.65;;
52848;SDS011;38714;53.180;5.812;2023-09-07T03:50:03;9.15;;;5.18;;
52848;SDS011;38714;53.180;5.812;2023-09-07T03:52:29;4.80;;;4.00;;
52848;SDS011;38714;53.180;5.812;2023-09-07T03:54:55;7.93;;;4.35;;
52848;SDS011;38714;53.180;5.812;2023-09-07T03:57:21;8.55;;;5.13;;
52848;SDS011;38714;53.180;5.812;2023-09-07T03:59:48;5.47;;;4.80;;
52848;SDS011;38714;53.180;5.812;2023-09-07T04:02:14;7.07;;;4.93;;
52848;SDS011;38714;53.180;5.812;2023-09-07T04:04:40;6.38;;;3.90;;
52848;SDS011;38714;53.180;5.812;2023-09-07T04:07:06;5.72;;;4.10;;
52848;SDS011;38714;53.180;5.812;2023-09-07T04:09:31;7.28;;;4.18;;
52848;SDS011;38714;53.180;5.812;2023-09-07T04:11:57;6.00;;;3.95;;
52848;SDS011;38714;53.180;5.812;2023-09-07T04:14:23;4.80;;;4.28;;
52848;SDS011;38714;53.180;5.812;2023-09-07T04:16:49;6.05;;;4.10;;
52848;SDS011;38714;53.180;5.812;2023-09-07T04:19:16;6.13;;;4.75;;
52848;SDS011;38714;53.180;5.812;2023-09-07T04:21:41;8.23;;;5.22;;
52848;SDS011;38714;53.180;5.812;2023-09-07T04:24:07;5.80;;;4.28;;
52848;SDS011;38714;53.180;5.812;2023-09-07T04:26:33;6.85;;;4.13;;
52848;SDS011;38714;53.180;5.812;2023-09-07T04:28:59;8.65;;;4.30;;
52848;SDS011;38714;53.180;5.812;2023-09-07T04:31:25;5.47;;;4.05;;
52848;SDS011;38714;53.180;5.812;2023-09-07T04:33:52;8.70;;;5.10;;
52848;SDS011;38714;53.180;5.812;2023-09-07T04:36:18;6.22;;;4.43;;
52848;SDS011;38714;53.180;5.812;2023-09-07T04:38:44;7.03;;;4.05;;
52848;SDS011;38714;53.180;5.812;2023-09-07T04:41:10;5.88;;;4.38;;
52848;SDS011;38714;53.180;5.812;2023-09-07T04:43:38;6.07;;;4.13;;
52848;SDS011;38714;53.180;5.812;2023-09-07T04:46:11;5.82;;;4.18;;
52848;SDS011;38714;53.180;5.812;2023-09-07T04:48:38;6.30;;;4.25;;
52848;SDS011;38714;53.180;5.812;2023-09-07T04:51:05;7.03;;;4.68;;
52848;SDS011;38714;53.180;5.812;2023-09-07T04:53:33;9.43;;;4.82;;
52848;SDS011;38714;53.180;5.812;2023-09-07T04:56:00;5.70;;;4.22;;
52848;SDS011;38714;53.180;5.812;2023-09-07T04:58:29;4.97;;;4.10;;
52848;SDS011;38714;53.180;5.812;2023-09-07T05:01:00;8.27;;;4.72;;
52848;SDS011;38714;53.180;5.812;2023-09-07T05:03:27;5.97;;;4.25;;
52848;SDS011;38714;53.180;5.812;2023-09-07T05:05:53;7.50;;;4.53;;
52848;SDS011;38714;53.180;5.812;2023-09-07T05:08:18;6.95;;;4.50;;
52848;SDS011;38714;53.180;5.812;2023-09-07T05:10:44;6.18;;;4.53;;
52848;SDS011;38714;53.180;5.812;2023-09-07T05:13:10;6.68;;;5.28;;
52848;SDS011;38714;53.180;5.812;2023-09-07T05:15:36;8.85;;;5.18;;
52848;SDS011;38714;53.180;5.812;2023-09-07T05:18:01;6.13;;;4.53;;
52848;SDS011;38714;53.180;5.812;2023-09-07T05:20:29;6.40;;;4.75;;
52848;SDS011;38714;53.180;5.812;2023-09-07T05:22:55;6.75;;;4.15;;
52848;SDS011;38714;53.180;5.812;2023-09-07T05:25:21;8.55;;;4.50;;
52848;SDS011;38714;53.180;5.812;2023-09-07T05:27:47;5.97;;;4.53;;
52848;SDS011;38714;53.180;5.812;2023-09-07T05:30:14;10.02;;;4.53;;
52848;SDS011;38714;53.180;5.812;2023-09-07T05:32:39;7.47;;;4.10;;
52848;SDS011;38714;53.180;5.812;2023-09-07T05:35:06;6.85;;;4.72;;
52848;SDS011;38714;53.180;5.812;2023-09-07T05:37:32;7.47;;;5.35;;
52848;SDS011;38714;53.180;5.812;2023-09-07T05:39:58;4.80;;;4.05;;
52848;SDS011;38714;53.180;5.812;2023-09-07T05:42:23;7.13;;;5.05;;
52848;SDS011;38714;53.180;5.812;2023-09-07T05:44:51;5.95;;;4.60;;
52848;SDS011;38714;53.180;5.812;2023-09-07T05:47:16;6.47;;;4.47;;
52848;SDS011;38714;53.180;5.812;2023-09-07T05:49:42;6.85;;;5.00;;
52848;SDS011;38714;53.180;5.812;2023-09-07T05:52:08;9.27;;;4.90;;
52848;SDS011;38714;53.180;5.812;2023-09-07T05:54:34;6.70;;;5.05;;
52848;SDS011;38714;53.180;5.812;2023-09-07T05:56:59;6.38;;;4.80;;
52848;SDS011;38714;53.180;5.812;2023-09-07T05:59:25;9.60;;;4.35;;
52848;SDS011;38714;53.180;5.812;2023-09-07T06:01:50;9.40;;;5.03;;
52848;SDS011;38714;53.180;5.812;2023-09-07T06:04:16;9.13;;;5.47;;
52848;SDS011;38714;53.180;5.812;2023-09-07T06:06:42;6.93;;;4.72;;
52848;SDS011;38714;53.180;5.812;2023-09-07T06:09:07;6.07;;;4.40;;
52848;SDS011;38714;53.180;5.812;2023-09-07T06:11:33;6.65;;;4.60;;
52848;SDS011;38714;53.180;5.812;2023-09-07T06:13:59;5.63;;;4.60;;
52848;SDS011;38714;53.180;5.812;2023-09-07T06:16:25;6.25;;;4.80;;
52848;SDS011;38714;53.180;5.812;2023-09-07T06:18:51;6.90;;;4.93;;
52848;SDS011;38714;53.180;5.812;2023-09-07T06:21:16;6.30;;;4.25;;
52848;SDS011;38714;53.180;5.812;2023-09-07T06:23:42;7.05;;;4.75;;
52848;SDS011;38714;53.180;5.812;2023-09-07T06:26:08;7.80;;;5.07;;
52848;SDS011;38714;53.180;5.812;2023-09-07T06:28:34;6.45;;;5.22;;
52848;SDS011;38714;53.180;5.812;2023-09-07T06:30:59;7.18;;;4.90;;
52848;SDS011;38714;53.180;5.812;2023-09-07T06:33:25;6.47;;;4.80;;
52848;SDS011;38714;53.180;5.812;2023-09-07T06:35:51;6.50;;;4.25;;
52848;SDS011;38714;53.180;5.812;2023-09-07T06:38:16;7.72;;;5.13;;
52848;SDS011;38714;53.180;5.812;2023-09-07T06:40:47;6.07;;;4.78;;
52848;SDS011;38714;53.180;5.812;2023-09-07T06:43:13;7.88;;;4.65;;
52848;SDS011;38714;53.180;5.812;2023-09-07T06:45:39;5.78;;;4.50;;
52848;SDS011;38714;53.180;5.812;2023-09-07T06:48:05;6.53;;;4.82;;
52848;SDS011;38714;53.180;5.812;2023-09-07T06:50:30;7.32;;;4.35;;
52848;SDS011;38714;53.180;5.812;2023-09-07T06:52:56;6.45;;;4.70;;
52848;SDS011;38714;53.180;5.812;2023-09-07T06:55:22;14.93;;;5.70;;
52848;SDS011;38714;53.180;5.812;2023-09-07T06:57:47;7.43;;;5.22;;
52848;SDS011;38714;53.180;5.812;2023-09-07T07:00:14;8.38;;;4.90;;
52848;SDS011;38714;53.180;5.812;2023-09-07T07:02:40;8.35;;;6.05;;
52848;SDS011;38714;53.180;5.812;2023-09-07T07:05:06;5.93;;;4.82;;
52848;SDS011;38714;53.180;5.812;2023-09-07T07:07:32;7.45;;;5.00;;
52848;SDS011;38714;53.180;5.812;2023-09-07T07:09:57;5.97;;;4.65;;
52848;SDS011;38714;53.180;5.812;2023-09-07T07:12:23;8.35;;;5.15;;
52848;SDS011;38714;53.180;5.812;2023-09-07T07:14:49;8.48;;;5.45;;
52848;SDS011;38714;53.180;5.812;2023-09-07T07:17:14;8.45;;;4.97;;
52848;SDS011;38714;53.180;5.812;2023-09-07T07:19:40;6.63;;;4.45;;
52848;SDS011;38714;53.180;5.812;2023-09-07T07:22:06;6.15;;;4.35;;
52848;SDS011;38714;53.180;5.812;2023-09-07T07:24:32;7.38;;;4.55;;
52848;SDS011;38714;53.180;5.812;2023-09-07T07:26:58;6.00;;;4.85;;
52848;SDS011;38714;53.180;5.812;2023-09-07T07:29:23;10.93;;;4.68;;
52848;SDS011;38714;53.180;5.812;2023-09-07T07:31:49;7.13;;;5.00;;
52848;SDS011;38714;53.180;5.812;2023-09-07T07:34:15;6.75;;;4.88;;
52848;SDS011;38714;53.180;5.812;2023-09-07T07:36:40;9.30;;;5.90;;
52848;SDS011;38714;53.180;5.812;2023-09-07T07:39:06;8.85;;;4.50;;
52848;SDS011;38714;53.180;5.812;2023-09-07T07:41:32;6.38;;;4.85;;
52848;SDS011;38714;53.180;5.812;2023-09-07T07:43:58;7.63;;;4.68;;
52848;SDS011;38714;53.180;5.812;2023-09-07T07:46:23;11.15;;;4.75;;
52848;SDS011;38714;53.180;5.812;2023-09-07T07:48:49;6.70;;;5.22;;
52848;SDS011;38714;53.180;5.812;2023-09-07T07:51:15;7.78;;;4.40;;
52848;SDS011;38714;53.180;5.812;2023-09-07T07:53:40;6.47;;;4.88;;
52848;SDS011;38714;53.180;5.812;2023-09-07T07:56:13;7.93;;;4.80;;
52848;SDS011;38714;53.180;5.812;2023-09-07T07:58:42;5.85;;;4.20;;
52848;SDS011;38714;53.180;5.812;2023-09-07T08:01:14;6.13;;;4.68;;
52848;SDS011;38714;53.180;5.812;2023-09-07T08:03:44;8.63;;;4.75;;
52848;SDS011;38714;53.180;5.812;2023-09-07T08:06:10;6.90;;;5.22;;
52848;SDS011;38714;53.180;5.812;2023-09-07T08:08:36;6.80;;;4.88;;
52848;SDS011;38714;53.180;5.812;2023-09-07T08:11:02;6.75;;;4.85;;
52848;SDS011;38714;53.180;5.812;2023-09-07T08:13:31;6.60;;;4.45;;
52848;SDS011;38714;53.180;5.812;2023-09-07T08:15:59;9.30;;;4.57;;
52848;SDS011;38714;53.180;5.812;2023-09-07T08:18:27;9.95;;;5.00;;
52848;SDS011;38714;53.180;5.812;2023-09-07T08:20:53;8.02;;;4.82;;
52848;SDS011;38714;53.180;5.812;2023-09-07T08:23:20;6.60;;;4.55;;
52848;SDS011;38714;53.180;5.812;2023-09-07T08:25:48;4.68;;;3.80;;
52848;SDS011;38714;53.180;5.812;2023-09-07T08:28:13;4.50;;;3.90;;
52848;SDS011;38714;53.180;5.812;2023-09-07T08:30:41;7.00;;;4.05;;
52848;SDS011;38714;53.180;5.812;2023-09-07T08:33:06;4.88;;;3.72;;
52848;SDS011;38714;53.180;5.812;2023-09-07T08:35:33;5.95;;;3.35;;
52848;SDS011;38714;53.180;5.812;2023-09-07T08:38:00;5.65;;;4.40;;
52848;SDS011;38714;53.180;5.812;2023-09-07T08:40:29;4.60;;;3.78;;
52848;SDS011;38714;53.180;5.812;2023-09-07T08:42:58;4.82;;;3.47;;
52848;SDS011;38714;53.180;5.812;2023-09-07T08:45:29;5.50;;;3.33;;
52848;SDS011;38714;53.180;5.812;2023-09-07T08:47:57;3.63;;;3.03;;
52848;SDS011;38714;53.180;5.812;2023-09-07T08:50:24;8.02;;;3.90;;
52848;SDS011;38714;53.180;5.812;2023-09-07T08:52:51;5.95;;;3.25;;
52848;SDS011;38714;53.180;5.812;2023-09-07T08:55:17;4.10;;;2.97;;
52848;SDS011;38714;53.180;5.812;2023-09-07T08:57:44;4.97;;;3.45;;
52848;SDS011;38714;53.180;5.812;2023-09-07T09:00:10;6.13;;;4.15;;
52848;SDS011;38714;53.180;5.812;2023-09-07T09:02:41;4.47;;;3.67;;
52848;SDS011;38714;53.180;5.812;2023-09-07T09:05:08;6.40;;;4.10;;
52848;SDS011;38714;53.180;5.812;2023-09-07T09:07:35;6.22;;;3.70;;
52848;SDS011;38714;53.180;5.812;2023-09-07T09:10:08;4.72;;;3.10;;
52848;SDS011;38714;53.180;5.812;2023-09-07T09:12:34;4.40;;;3.08;;
52848;SDS011;38714;53.180;5.812;2023-09-07T09:15:00;5.30;;;3.40;;
52848;SDS011;38714;53.180;5.812;2023-09-07T09:17:29;6.38;;;4.18;;
52848;SDS011;38714;53.180;5.812;2023-09-07T09:19:55;4.22;;;3.55;;
52848;SDS011;38714;53.180;5.812;2023-09-07T09:22:20;5.90;;;3.92;;
52848;SDS011;38714;53.180;5.812;2023-09-07T09:24:47;4.25;;;3.38;;
52848;SDS011;38714;53.180;5.812;2023-09-07T09:27:13;5.75;;;3.60;;
52848;SDS011;38714;53.180;5.812;2023-09-07T09:29:39;4.40;;;3.70;;
52848;SDS011;38714;53.180;5.812;2023-09-07T09:32:06;5.63;;;3.42;;
52848;SDS011;38714;53.180;5.812;2023-09-07T09:34:35;3.85;;;3.13;;
52848;SDS011;38714;53.180;5.812;2023-09-07T09:37:02;6.13;;;4.00;;
52848;SDS011;38714;53.180;5.812;2023-09-07T09:39:28;7.25;;;3.83;;
52848;SDS011;38714;53.180;5.812;2023-09-07T09:41:55;5.05;;;3.55;;
52848;SDS011;38714;53.180;5.812;2023-09-07T09:44:22;5.78;;;4.00;;
52848;SDS011;38714;53.180;5.812;2023-09-07T09:46:52;4.07;;;3.67;;
52848;SDS011;38714;53.180;5.812;2023-09-07T09:49:21;5.22;;;4.18;;
52848;SDS011;38714;53.180;5.812;2023-09-07T09:51:48;6.85;;;3.78;;
52848;SDS011;38714;53.180;5.812;2023-09-07T09:54:16;5.55;;;4.30;;
52848;SDS011;38714;53.180;5.812;2023-09-07T09:56:45;5.15;;;3.13;;
52848;SDS011;38714;53.180;5.812;2023-09-07T09:59:14;3.80;;;3.15;;
52848;SDS011;38714;53.180;5.812;2023-09-07T10:01:43;5.32;;;3.33;;
52848;SDS011;38714;53.180;5.812;2023-09-07T10:04:12;4.63;;;3.78;;
52848;SDS011;38714;53.180;5.812;2023-09-07T10:06:49;4.07;;;3.08;;
52848;SDS011;38714;53.180;5.812;2023-09-07T10:09:19;5.15;;;3.17;;
52848;SDS011;38714;53.180;5.812;2023-09-07T10:11:50;4.65;;;3.22;;
52848;SDS011;38714;53.180;5.812;2023-09-07T10:14:18;8.30;;;3.40;;
52848;SDS011;38714;53.180;5.812;2023-09-07T10:16:47;6.18;;;3.28;;
52848;SDS011;38714;53.180;5.812;2023-09-07T10:19:23;5.75;;;3.42;;
52848;SDS011;38714;53.180;5.812;2023-09-07T10:21:50;3.35;;;3.05;;
52848;SDS011;38714;53.180;5.812;2023-09-07T10:24:28;4.50;;;3.30;;
52848;SDS011;38714;53.180;5.812;2023-09-07T10:27:05;5.60;;;3.72;;
52848;SDS011;38714;53.180;5.812;2023-09-07T10:29:45;6.03;;;2.97;;
52848;SDS011;38714;53.180;5.812;2023-09-07T10:32:11;4.78;;;3.85;;
52848;SDS011;38714;53.180;5.812;2023-09-07T10:34:41;4.32;;;3.17;;
52848;SDS011;38714;53.180;5.812;2023-09-07T10:37:12;3.35;;;3.03;;
52848;SDS011;38714;53.180;5.812;2023-09-07T10:39:38;4.63;;;3.63;;
52848;SDS011;38714;53.180;5.812;2023-09-07T10:42:08;5.47;;;3.70;;
52848;SDS011;38714;53.180;5.812;2023-09-07T10:44:33;6.82;;;3.38;;
52848;SDS011;38714;53.180;5.812;2023-09-07T10:46:59;4.63;;;3.40;;
52848;SDS011;38714;53.180;5.812;2023-09-07T10:49:25;3.63;;;3.00;;
52848;SDS011;38714;53.180;5.812;2023-09-07T10:51:51;3.67;;;2.95;;
52848;SDS011;38714;53.180;5.812;2023-09-07T10:54:17;5.75;;;2.53;;
52848;SDS011;38714;53.180;5.812;2023-09-07T10:56:48;4.05;;;3.60;;
52848;SDS011;38714;53.180;5.812;2023-09-07T10:59:14;7.47;;;3.55;;
52848;SDS011;38714;53.180;5.812;2023-09-07T11:01:41;4.90;;;3.38;;
52848;SDS011;38714;53.180;5.812;2023-09-07T11:04:10;5.22;;;3.08;;
52848;SDS011;38714;53.180;5.812;2023-09-07T11:06:36;3.80;;;3.15;;
52848;SDS011;38714;53.180;5.812;2023-09-07T11:09:04;3.08;;;2.78;;
52848;SDS011;38714;53.180;5.812;2023-09-07T11:11:31;3.50;;;3.05;;
52848;SDS011;38714;53.180;5.812;2023-09-07T11:13:58;3.85;;;3.47;;
52848;SDS011;38714;53.180;5.812;2023-09-07T11:16:24;3.83;;;3.20;;
52848;SDS011;38714;53.180;5.812;2023-09-07T11:18:52;4.25;;;3.10;;
52848;SDS011;38714;53.180;5.812;2023-09-07T11:21:19;3.67;;;3.25;;
52848;SDS011;38714;53.180;5.812;2023-09-07T11:23:45;5.57;;;3.10;;
52848;SDS011;38714;53.180;5.812;2023-09-07T11:26:11;3.95;;;2.58;;
52848;SDS011;38714;53.180;5.812;2023-09-07T11:28:37;3.72;;;3.05;;
52848;SDS011;38714;53.180;5.812;2023-09-07T11:31:03;3.30;;;2.78;;
52848;SDS011;38714;53.180;5.812;2023-09-07T11:33:32;5.72;;;3.67;;
52848;SDS011;38714;53.180;5.812;2023-09-07T11:35:58;3.45;;;2.50;;
52848;SDS011;38714;53.180;5.812;2023-09-07T11:38:28;2.92;;;2.60;;
52848;SDS011;38714;53.180;5.812;2023-09-07T11:41:00;2.88;;;2.58;;
52848;SDS011;38714;53.180;5.812;2023-09-07T11:43:25;4.20;;;2.78;;
52848;SDS011;38714;53.180;5.812;2023-09-07T11:45:51;4.18;;;3.00;;
52848;SDS011;38714;53.180;5.812;2023-09-07T11:48:17;6.70;;;3.17;;
52848;SDS011;38714;53.180;5.812;2023-09-07T11:50:43;4.82;;;2.90;;
52848;SDS011;38714;53.180;5.812;2023-09-07T11:53:08;4.10;;;3.22;;
52848;SDS011;38714;53.180;5.812;2023-09-07T11:55:34;4.00;;;2.85;;
52848;SDS011;38714;53.180;5.812;2023-09-07T11:58:01;4.53;;;2.67;;
52848;SDS011;38714;53.180;5.812;2023-09-07T12:00:27;5.95;;;2.50;;
52848;SDS011;38714;53.180;5.812;2023-09-07T12:02:54;3.80;;;3.45;;
52848;SDS011;38714;53.180;5.812;2023-09-07T12:05:20;3.40;;;2.83;;
52848;SDS011;38714;53.180;5.812;2023-09-07T12:07:45;7.85;;;3.38;;
52848;SDS011;38714;53.180;5.812;2023-09-07T12:10:11;3.63;;;3.25;;
52848;SDS011;38714;53.180;5.812;2023-09-07T12:12:41;5.07;;;3.85;;
52848;SDS011;38714;53.180;5.812;2023-09-07T12:15:08;6.38;;;3.03;;
52848;SDS011;38714;53.180;5.812;2023-09-07T12:17:36;4.32;;;2.70;;
52848;SDS011;38714;53.180;5.812;2023-09-07T12:20:02;4.25;;;3.60;;
52848;SDS011;38714;53.180;5.812;2023-09-07T12:22:30;3.65;;;2.72;;
52848;SDS011;38714;53.180;5.812;2023-09-07T12:24:55;3.95;;;3.15;;
52848;SDS011;38714;53.180;5.812;2023-09-07T12:27:21;3.22;;;2.53;;
52848;SDS011;38714;53.180;5.812;2023-09-07T12:29:47;3.03;;;2.63;;
52848;SDS011;38714;53.180;5.812;2023-09-07T12:32:13;4.22;;;3.25;;
52848;SDS011;38714;53.180;5.812;2023-09-07T12:34:39;4.97;;;2.78;;
52848;SDS011;38714;53.180;5.812;2023-09-07T12:37:05;5.05;;;3.20;;
52848;SDS011;38714;53.180;5.812;2023-09-07T12:39:31;7.85;;;3.28;;
52848;SDS011;38714;53.180;5.812;2023-09-07T12:41:57;5.28;;;2.88;;
52848;SDS011;38714;53.180;5.812;2023-09-07T12:44:23;4.47;;;2.97;;
52848;SDS011;38714;53.180;5.812;2023-09-07T12:46:49;3.47;;;3.00;;
52848;SDS011;38714;53.180;5.812;2023-09-07T12:49:15;4.05;;;2.83;;
52848;SDS011;38714;53.180;5.812;2023-09-07T12:51:41;3.75;;;3.03;;
52848;SDS011;38714;53.180;5.812;2023-09-07T12:54:07;3.00;;;2.55;;
52848;SDS011;38714;53.180;5.812;2023-09-07T12:56:33;3.30;;;2.83;;
52848;SDS011;38714;53.180;5.812;2023-09-07T12:58:58;3.83;;;2.85;;
52848;SDS011;38714;53.180;5.812;2023-09-07T13:01:25;4.07;;;2.33;;
52848;SDS011;38714;53.180;5.812;2023-09-07T13:03:51;4.43;;;3.00;;
52848;SDS011;38714;53.180;5.812;2023-09-07T13:06:17;4.63;;;3.20;;
52848;SDS011;38714;53.180;5.812;2023-09-07T13:08:43;2.70;;;2.50;;
52848;SDS011;38714;53.180;5.812;2023-09-07T13:11:10;4.18;;;2.80;;
52848;SDS011;38714;53.180;5.812;2023-09-07T13:13:36;3.83;;;3.13;;
52848;SDS011;38714;53.180;5.812;2023-09-07T13:16:01;3.25;;;2.72;;
52848;SDS011;38714;53.180;5.812;2023-09-07T13:18:27;3.75;;;3.00;;
52848;SDS011;38714;53.180;5.812;2023-09-07T13:20:53;3.63;;;2.92;;
52848;SDS011;38714;53.180;5.812;2023-09-07T13:23:24;3.33;;;3.03;;
52848;SDS011;38714;53.180;5.812;2023-09-07T13:25:51;4.65;;;3.40;;
52848;SDS011;38714;53.180;5.812;2023-09-07T13:28:16;3.33;;;3.00;;
52848;SDS011;38714;53.180;5.812;2023-09-07T13:30:42;3.10;;;2.80;;
52848;SDS011;38714;53.180;5.812;2023-09-07T13:33:08;4.85;;;2.97;;
52848;SDS011;38714;53.180;5.812;2023-09-07T13:35:33;3.20;;;2.88;;
52848;SDS011;38714;53.180;5.812;2023-09-07T13:37:59;3.60;;;3.05;;
52848;SDS011;38714;53.180;5.812;2023-09-07T13:40:24;3.63;;;2.90;;
52848;SDS011;38714;53.180;5.812;2023-09-07T13:42:54;3.15;;;2.85;;
52848;SDS011;38714;53.180;5.812;2023-09-07T13:45:20;3.15;;;2.65;;
52848;SDS011;38714;53.180;5.812;2023-09-07T13:47:46;7.22;;;2.95;;
52848;SDS011;38714;53.180;5.812;2023-09-07T13:50:11;6.25;;;2.80;;
52848;SDS011;38714;53.180;5.812;2023-09-07T13:52:37;4.82;;;2.85;;
52848;SDS011;38714;53.180;5.812;2023-09-07T13:55:04;3.47;;;2.90;;
52848;SDS011;38714;53.180;5.812;2023-09-07T13:57:30;3.58;;;2.60;;
52848;SDS011;38714;53.180;5.812;2023-09-07T13:59:55;3.38;;;2.80;;
52848;SDS011;38714;53.180;5.812;2023-09-07T14:02:21;4.70;;;2.72;;
52848;SDS011;38714;53.180;5.812;2023-09-07T14:04:48;3.72;;;2.65;;
52848;SDS011;38714;53.180;5.812;2023-09-07T14:07:14;3.53;;;2.95;;
52848;SDS011;38714;53.180;5.812;2023-09-07T14:09:40;2.90;;;2.42;;
52848;SDS011;38714;53.180;5.812;2023-09-07T14:12:06;3.38;;;2.67;;
52848;SDS011;38714;53.180;5.812;2023-09-07T14:14:32;3.60;;;2.70;;
52848;SDS011;38714;53.180;5.812;2023-09-07T14:16:57;3.08;;;2.67;;
52848;SDS011;38714;53.180;5.812;2023-09-07T14:19:25;3.78;;;2.47;;
52848;SDS011;38714;53.180;5.812;2023-09-07T14:21:55;3.92;;;2.47;;
52848;SDS011;38714;53.180;5.812;2023-09-07T14:24:24;3.03;;;2.55;;
52848;SDS011;38714;53.180;5.812;2023-09-07T14:26:50;2.63;;;2.42;;
52848;SDS011;38714;53.180;5.812;2023-09-07T14:29:16;4.93;;;2.83;;
52848;SDS011;38714;53.180;5.812;2023-09-07T14:31:42;3.78;;;2.58;;
52848;SDS011;38714;53.180;5.812;2023-09-07T14:34:08;2.80;;;2.45;;
52848;SDS011;38714;53.180;5.812;2023-09-07T14:36:36;3.63;;;2.60;;
52848;SDS011;38714;53.180;5.812;2023-09-07T14:39:01;2.88;;;2.58;;
52848;SDS011;38714;53.180;5.812;2023-09-07T14:41:28;6.00;;;3.20;;
52848;SDS011;38714;53.180;5.812;2023-09-07T14:43:55;2.67;;;1.88;;
52848;SDS011;38714;53.180;5.812;2023-09-07T14:46:21;3.05;;;2.78;;